Time;durP1;ratioP1;P1;durP2;ratioP2;P2;SDS_P1;SDS_P2;PMS_P1;PMS_P2;Temp;Humidity;BMP_temperature;BMP_pressure;BME280_temperature;BME280_humidity;BME280_pressure;Samples;Min_cycle;Max_cycle;Signal;HPM_P1;HPM_P2
2023/06/22 04:10:56;;;;;;;25.97;11.37;;;;;;;19.47;100.00;100558.53;5561974;32;185896;-85
2023/06/22 04:14:00;;;;;;;17.45;9.95;;;;;;;19.49;100.00;100556.56;5547255;32;33657;-85
2023/06/22 04:17:02;;;;;;;17.70;9.80;;;;;;;19.60;100.00;100569.09;5542009;32;33693;-85
2023/06/22 04:20:06;;;;;;;16.25;9.38;;;;;;;19.72;100.00;100567.22;5525189;32;33620;-85
2023/06/22 04:23:09;;;;;;;22.77;8.98;;;;;;;19.83;100.00;100558.19;5542867;32;34384;-85
2023/06/22 04:26:14;;;;;;;17.55;9.32;;;;;;;19.84;100.00;100568.84;5545191;32;34269;-84
2023/06/22 04:29:16;;;;;;;14.55;8.13;;;;;;;19.92;100.00;100584.34;5546245;32;34049;-84
2023/06/22 04:32:19;;;;;;;14.73;7.53;;;;;;;20.00;100.00;100575.59;5545684;32;34520;-84
2023/06/22 04:35:22;;;;;;;12.65;7.05;;;;;;;20.04;100.00;100575.22;5546687;32;33427;-85
2023/06/22 04:38:25;;;;;;;9.48;6.78;;;;;;;20.32;100.00;100578.19;5546732;32;33827;-84
2023/06/22 04:41:28;;;;;;;14.77;7.07;;;;;;;20.64;100.00;100579.03;5546898;32;34176;-84
2023/06/22 04:44:30;;;;;;;12.88;7.28;;;;;;;20.57;100.00;100575.16;5547824;32;33636;-84
2023/06/22 04:47:33;;;;;;;13.23;6.90;;;;;;;20.81;100.00;100574.78;5547118;32;34312;-84
2023/06/22 04:50:38;;;;;;;13.80;6.75;;;;;;;21.08;100.00;100576.00;5546813;32;33654;-85
2023/06/22 04:53:42;;;;;;;9.27;6.10;;;;;;;21.38;100.00;100576.03;5546267;32;33887;-85
2023/06/22 04:56:46;;;;;;;13.38;6.90;;;;;;;21.75;100.00;100578.00;5546470;32;33522;-85
2023/06/22 04:59:49;;;;;;;15.63;6.57;;;;;;;21.96;100.00;100579.66;5546182;32;33932;-85
2023/06/22 05:02:52;;;;;;;11.68;7.07;;;;;;;22.19;100.00;100587.41;5546209;32;33892;-85
2023/06/22 05:06:05;;;;;;;11.68;6.22;;;;;;;22.49;100.00;100582.75;5541320;32;33771;-85
2023/06/22 05:09:08;;;;;;;15.52;7.20;;;;;;;22.72;100.00;100587.75;5534243;32;33458;-85
2023/06/22 05:12:11;;;;;;;14.23;7.10;;;;;;;22.90;100.00;100587.81;5526070;32;33831;-84
2023/06/22 05:15:15;;;;;;;11.70;6.40;;;;;;;23.17;100.00;100594.16;5539896;32;33564;-85
2023/06/22 05:18:17;;;;;;;13.65;6.20;;;;;;;23.39;100.00;100595.59;5525063;32;33905;-85
2023/06/22 05:21:26;;;;;;;12.93;5.93;;;;;;;23.69;100.00;100598.88;5515425;32;33503;-85
2023/06/22 05:24:28;;;;;;;11.30;5.20;;;;;;;24.33;100.00;100602.38;5518057;32;34267;-85
2023/06/22 05:27:31;;;;;;;8.77;5.18;;;;;;;25.58;100.00;100606.31;5529971;32;33829;-86
2023/06/22 05:30:34;;;;;;;10.30;5.30;;;;;;;27.04;100.00;100610.84;5529438;32;33604;-85
2023/06/22 05:33:37;;;;;;;8.77;5.32;;;;;;;28.28;100.00;100624.50;5535172;32;33714;-85
2023/06/22 05:36:39;;;;;;;11.05;5.60;;;;;;;29.14;94.23;100625.81;5535347;32;33833;-85
2023/06/22 05:39:42;;;;;;;10.40;5.47;;;;;;;29.90;88.56;100627.19;5534031;32;34084;-85
2023/06/22 05:42:45;;;;;;;10.32;5.10;;;;;;;30.70;85.31;100636.97;5529676;32;33697;-86
2023/06/22 05:45:47;;;;;;;9.52;5.18;;;;;;;31.15;74.76;100633.75;5529501;32;33315;-86
2023/06/22 05:48:50;;;;;;;9.90;5.25;;;;;;;31.50;76.28;100637.41;5527170;32;33759;-86
2023/06/22 05:51:53;;;;;;;10.63;5.10;;;;;;;31.07;76.94;100642.16;5525602;32;34255;-85
2023/06/22 05:54:55;;;;;;;9.18;5.30;;;;;;;32.56;73.06;100639.44;5542731;32;33721;-86
2023/06/22 05:58:00;;;;;;;11.12;5.65;;;;;;;32.95;65.62;100648.59;5539487;32;33686;-86
2023/06/22 06:01:03;;;;;;;8.10;5.05;;;;;;;33.60;63.88;100644.00;5529464;32;33702;-86
2023/06/22 06:04:09;;;;;;;10.93;5.15;;;;;;;33.53;56.98;100644.03;5525850;32;33731;-86
2023/06/22 06:07:11;;;;;;;12.18;5.43;;;;;;;33.26;57.22;100646.97;5528182;32;33473;-90
2023/06/22 06:10:14;;;;;;;11.20;5.30;;;;;;;34.26;53.55;100640.87;5528136;32;33931;-91
2023/06/22 06:13:17;;;;;;;10.63;5.32;;;;;;;34.87;48.81;100645.69;5523448;32;34454;-91
2023/06/22 06:16:20;;;;;;;9.70;5.65;;;;;;;33.50;51.25;100638.13;5528503;32;33673;-88
2023/06/22 06:19:22;;;;;;;7.82;5.20;;;;;;;34.10;47.79;100640.41;5528645;32;33519;-88
2023/06/22 06:22:25;;;;;;;10.35;5.30;;;;;;;35.15;43.98;100645.09;5522694;32;34122;-88
2023/06/22 06:25:28;;;;;;;15.23;5.95;;;;;;;34.57;47.10;100646.50;5523004;32;33717;-87
2023/06/22 06:28:30;;;;;;;13.75;5.45;;;;;;;35.05;47.21;100636.53;5516436;32;33458;-87
2023/06/22 06:31:33;;;;;;;10.40;5.43;;;;;;;36.32;45.33;100638.31;5515784;32;33753;-86
2023/06/22 06:34:36;;;;;;;12.75;5.43;;;;;;;36.50;44.14;100645.59;5530360;32;34342;-85
2023/06/22 06:37:47;;;;;;;11.18;5.43;;;;;;;34.53;45.05;100635.06;5522752;32;34092;-85
2023/06/22 06:40:50;;;;;;;11.15;5.50;;;;;;;33.10;50.36;100631.00;5523760;32;34100;-87
2023/06/22 06:43:53;;;;;;;9.98;5.32;;;;;;;31.56;58.66;100631.94;5531785;32;33604;-87
2023/06/22 06:46:56;;;;;;;10.18;5.18;;;;;;;31.19;58.90;100623.22;5527434;32;34325;-87
2023/06/22 06:49:59;;;;;;;7.62;4.65;;;;;;;30.49;58.88;100630.53;5529206;32;34038;-87
2023/06/22 06:53:02;;;;;;;11.27;5.20;;;;;;;29.82;61.90;100630.06;5524954;32;34515;-88
2023/06/22 06:56:05;;;;;;;12.45;5.65;;;;;;;29.88;60.04;100628.41;5528197;32;34581;-87
2023/06/22 06:59:08;;;;;;;13.07;5.60;;;;;;;29.22;62.12;100631.19;5527158;32;34265;-87
2023/06/22 07:02:10;;;;;;;11.77;5.60;;;;;;;29.39;65.15;100626.31;5528710;32;33964;-87
2023/06/22 07:05:13;;;;;;;11.23;4.70;;;;;;;29.55;68.18;100617.03;5539494;32;33698;-87
2023/06/22 07:08:16;;;;;;;8.48;4.20;;;;;;;27.99;59.89;100618.81;5529057;32;33501;-86
2023/06/22 07:11:19;;;;;;;10.38;4.70;;;;;;;28.57;60.30;100617.34;5526578;32;33771;-87
2023/06/22 07:14:21;;;;;;;13.00;4.60;;;;;;;29.13;62.64;100613.22;5529511;32;33752;-87
2023/06/22 07:17:24;;;;;;;12.60;6.40;;;;;;;29.84;59.33;100612.44;5528513;32;33817;-86
2023/06/22 07:20:27;;;;;;;13.27;5.22;;;;;;;30.35;58.62;100613.19;5521107;32;33681;-87
2023/06/22 07:23:30;;;;;;;13.32;4.85;;;;;;;30.63;54.86;100620.47;5527851;32;33814;-86
2023/06/22 07:26:34;;;;;;;10.00;4.60;;;;;;;30.37;55.61;100621.22;5526637;32;33762;-86
2023/06/22 07:29:37;;;;;;;9.80;4.40;;;;;;;29.93;57.14;100617.75;5527323;32;33456;-87
2023/06/22 07:32:41;;;;;;;10.60;4.43;;;;;;;30.36;54.95;100617.63;5527397;32;33731;-87
2023/06/22 07:35:44;;;;;;;11.80;4.65;;;;;;;30.38;55.02;100617.44;5528424;32;33801;-87
2023/06/22 07:38:46;;;;;;;13.05;4.75;;;;;;;30.77;50.28;100623.31;5527606;32;33375;-87
2023/06/22 07:41:49;;;;;;;8.23;4.03;;;;;;;31.19;49.49;100621.31;5523590;32;34241;-87
2023/06/22 07:44:52;;;;;;;13.07;4.72;;;;;;;30.95;49.74;100619.16;5521715;32;34162;-87
2023/06/22 07:47:55;;;;;;;9.55;4.18;;;;;;;30.80;51.88;100617.41;5524582;32;33719;-87
2023/06/22 07:50:58;;;;;;;8.20;4.10;;;;;;;30.64;55.17;100613.97;5529113;32;34148;-87
2023/06/22 07:54:01;;;;;;;8.88;4.43;;;;;;;31.21;49.07;100615.63;5523373;32;34416;-87
2023/06/22 07:57:05;;;;;;;8.98;4.10;;;;;;;31.37;50.42;100614.41;5521945;32;34596;-85
2023/06/22 08:00:14;;;;;;;9.40;4.05;;;;;;;31.14;48.99;100617.53;5524828;32;33698;-84
2023/06/22 08:03:18;;;;;;;9.30;4.60;;;;;;;31.18;48.57;100608.66;5525041;32;33681;-84
2023/06/22 08:06:21;;;;;;;10.70;4.20;;;;;;;31.89;49.06;100602.00;5527775;32;34903;-87
2023/06/22 08:09:24;;;;;;;11.52;4.45;;;;;;;32.19;52.17;100604.28;5523717;32;33680;-86
2023/06/22 08:12:27;;;;;;;12.35;3.92;;;;;;;32.35;45.77;100598.31;5527339;32;33762;-87
2023/06/22 08:15:30;;;;;;;10.70;4.10;;;;;;;32.64;50.54;100606.28;5531897;32;34694;-87
2023/06/22 08:18:33;;;;;;;11.65;4.40;;;;;;;33.20;46.13;100598.38;5536473;32;33799;-87
2023/06/22 08:21:36;;;;;;;8.75;4.20;;;;;;;33.50;42.15;100602.38;5523441;32;33631;-87
2023/06/22 08:24:38;;;;;;;8.25;4.18;;;;;;;33.44;40.76;100596.69;5523519;32;33419;-88
2023/06/22 08:27:46;;;;;;;10.73;4.50;;;;;;;33.16;45.22;100592.50;5528680;32;34039;-91
2023/06/22 08:30:49;;;;;;;10.23;4.32;;;;;;;33.04;42.54;100597.84;5529255;32;33549;-92
2023/06/22 08:33:52;;;;;;;11.60;4.40;;;;;;;33.14;44.08;100600.09;5528380;32;33802;-88
2023/06/22 08:36:55;;;;;;;9.90;4.47;;;;;;;33.59;45.24;100592.81;5527840;32;34608;-88
2023/06/22 08:39:59;;;;;;;12.07;5.18;;;;;;;34.33;44.42;100594.03;5525671;32;34360;-88
2023/06/22 08:43:02;;;;;;;9.88;5.15;;;;;;;34.65;41.03;100588.34;5523286;32;34720;-87
2023/06/22 08:46:04;;;;;;;11.05;4.50;;;;;;;34.70;41.59;100595.91;5526736;32;33395;-86
2023/06/22 08:49:08;;;;;;;10.68;5.20;;;;;;;35.09;39.38;100590.91;5514109;32;33821;-85
2023/06/22 08:52:10;;;;;;;10.75;5.87;;;;;;;33.95;41.71;100595.88;5517086;32;34088;-87
2023/06/22 08:55:14;;;;;;;9.90;5.30;;;;;;;34.26;40.27;100586.69;5527567;32;33895;-86
2023/06/22 08:58:18;;;;;;;12.10;5.55;;;;;;;33.84;43.12;100576.28;5530132;32;34785;-86
2023/06/22 09:01:21;;;;;;;10.02;6.00;;;;;;;33.51;43.99;100571.94;5529493;32;33656;-85
2023/06/22 09:04:24;;;;;;;11.57;5.97;;;;;;;34.67;41.10;100570.53;5527577;32;33497;-86
2023/06/22 09:07:27;;;;;;;9.48;5.62;;;;;;;33.99;44.44;100564.91;5528293;32;34020;-86
2023/06/22 09:10:30;;;;;;;12.27;6.62;;;;;;;34.87;44.93;100555.63;5529209;32;33532;-86
2023/06/22 09:13:34;;;;;;;10.40;6.50;;;;;;;35.53;41.05;100567.75;5523363;32;34478;-86
2023/06/22 09:16:38;;;;;;;14.00;7.18;;;;;;;36.07;39.59;100570.41;5529206;32;34684;-86
2023/06/22 09:19:40;;;;;;;8.52;6.68;;;;;;;35.28;40.51;100557.78;5530336;32;33872;-86
2023/06/22 09:22:43;;;;;;;10.65;7.05;;;;;;;36.06;40.58;100562.34;5528772;32;33731;-86
2023/06/22 09:25:47;;;;;;;8.13;7.10;;;;;;;36.68;37.70;100566.41;5528783;32;34344;-86
2023/06/22 09:28:50;;;;;;;8.57;7.53;;;;;;;36.09;37.38;100554.41;5529529;32;33831;-85
2023/06/22 09:31:56;;;;;;;12.18;7.55;;;;;;;36.02;37.71;100556.47;5527653;32;33736;-85
2023/06/22 09:34:58;;;;;;;14.05;7.85;;;;;;;36.00;38.37;100556.72;5529016;32;33662;-84
2023/06/22 09:38:01;;;;;;;13.32;8.50;;;;;;;36.19;39.68;100553.81;5528876;32;34310;-84
2023/06/22 09:41:04;;;;;;;8.63;7.75;;;;;;;35.93;37.32;100549.66;5528883;32;33882;-85
2023/06/22 09:44:07;;;;;;;12.37;8.00;;;;;;;35.98;38.50;100552.50;5528808;32;33952;-85
2023/06/22 09:47:10;;;;;;;13.55;8.82;;;;;;;36.29;41.84;100544.91;5524441;32;32290;-84
2023/06/22 09:50:12;;;;;;;12.48;7.90;;;;;;;36.15;37.01;100553.47;5528878;32;34420;-84
2023/06/22 09:53:15;;;;;;;13.18;8.85;;;;;;;36.86;38.03;100553.47;5528369;32;33790;-84
2023/06/22 09:56:18;;;;;;;9.20;8.23;;;;;;;36.85;35.62;100555.41;5528422;32;34341;-85
2023/06/22 09:59:21;;;;;;;10.63;8.43;;;;;;;37.04;37.76;100544.97;5527832;32;33633;-84
2023/06/22 10:02:23;;;;;;;12.98;8.57;;;;;;;37.58;37.09;100548.34;5528901;32;33910;-84
2023/06/22 10:05:26;;;;;;;14.77;8.68;;;;;;;37.67;37.01;100546.00;5535501;32;33835;-84
2023/06/22 10:08:30;;;;;;;12.35;8.75;;;;;;;37.66;36.38;100541.56;5532051;32;33709;-83
2023/06/22 10:11:34;;;;;;;16.10;9.88;;;;;;;36.82;37.34;100550.38;5535268;32;34426;-84
2023/06/22 10:14:37;;;;;;;10.85;8.40;;;;;;;37.02;38.08;100544.38;5529070;32;33783;-84
2023/06/22 10:17:40;;;;;;;9.95;8.95;;;;;;;37.11;35.64;100544.00;5527872;32;33499;-84
2023/06/22 10:20:43;;;;;;;11.00;8.90;;;;;;;36.31;37.50;100545.53;5527309;32;34503;-85
2023/06/22 10:23:46;;;;;;;9.45;8.25;;;;;;;35.86;38.21;100545.09;5539215;32;33376;-84
2023/06/22 10:26:49;;;;;;;11.77;8.30;;;;;;;38.01;34.71;100541.19;5544309;32;35344;-84
2023/06/22 10:29:53;;;;;;;10.95;8.45;;;;;;;39.80;33.03;100535.16;5530054;32;35345;-84
2023/06/22 10:32:56;;;;;;;13.82;8.80;;;;;;;40.03;30.57;100531.13;5530585;32;33691;-83
2023/06/22 10:35:59;;;;;;;11.65;8.13;;;;;;;39.16;33.19;100531.41;5530836;32;33595;-83
2023/06/22 10:39:02;;;;;;;11.82;8.68;;;;;;;38.89;34.26;100538.63;5530109;32;33528;-84
2023/06/22 10:42:06;;;;;;;9.80;8.73;;;;;;;38.93;33.96;100530.62;5521329;32;33916;-86
2023/06/22 10:45:09;;;;;;;10.05;8.88;;;;;;;38.71;33.37;100533.47;5516127;32;34321;-86
2023/06/22 10:48:11;;;;;;;10.63;8.68;;;;;;;38.00;35.50;100534.00;5526735;32;33765;-90
2023/06/22 10:51:16;;;;;;;12.88;8.77;;;;;;;37.78;35.33;100519.28;5520062;32;33769;-89
2023/06/22 10:54:19;;;;;;;12.15;7.85;;;;;;;36.83;37.84;100527.19;5527827;32;33661;-90
2023/06/22 10:57:22;;;;;;;11.43;8.27;;;;;;;37.57;34.87;100519.84;5526159;32;33735;-86
2023/06/22 11:00:25;;;;;;;12.70;8.70;;;;;;;37.29;35.54;100518.84;5527402;32;34958;-86
2023/06/22 11:03:27;;;;;;;14.30;9.38;;;;;;;37.16;36.53;100510.91;5521935;32;34506;-87
2023/06/22 11:06:30;;;;;;;13.85;8.90;;;;;;;37.58;33.70;100516.00;5526237;32;34115;-85
2023/06/22 11:09:33;;;;;;;9.68;8.60;;;;;;;38.20;33.67;100524.28;5527790;32;34548;-86
2023/06/22 11:12:36;;;;;;;13.88;9.32;;;;;;;36.72;34.29;100522.56;5521477;32;33036;-86
2023/06/22 11:15:39;;;;;;;11.35;8.90;;;;;;;36.28;36.47;100513.72;5520814;32;33742;-85
2023/06/22 11:18:42;;;;;;;12.90;10.27;;;;;;;36.83;36.21;100507.03;5530112;32;33823;-85
2023/06/22 11:21:45;;;;;;;11.43;9.65;;;;;;;36.41;35.58;100503.47;5522532;32;33668;-85
2023/06/22 11:24:48;;;;;;;12.07;8.98;;;;;;;36.28;38.08;100501.81;5529350;32;34824;-85
2023/06/22 11:27:53;;;;;;;11.73;9.10;;;;;;;36.64;36.99;100505.28;5526375;32;33806;-84
2023/06/22 11:30:56;;;;;;;11.20;8.07;;;;;;;36.26;39.57;100495.72;5528415;32;33509;-85
2023/06/22 11:34:02;;;;;;;13.82;8.88;;;;;;;36.44;37.43;100500.19;5527667;32;35112;-83
2023/06/22 11:37:05;;;;;;;13.57;8.43;;;;;;;36.07;36.32;100500.53;5517433;32;33657;-85
2023/06/22 11:40:08;;;;;;;14.70;9.02;;;;;;;36.04;36.86;100501.03;5519013;32;33843;-85
2023/06/22 11:43:11;;;;;;;10.07;8.95;;;;;;;35.99;36.00;100499.84;5524853;32;33942;-85
2023/06/22 11:46:14;;;;;;;13.98;9.77;;;;;;;36.09;37.58;100493.69;5520780;32;34301;-86
2023/06/22 11:49:17;;;;;;;11.55;9.52;;;;;;;35.26;37.31;100488.25;5526513;32;34701;-86
2023/06/22 11:52:20;;;;;;;14.25;9.63;;;;;;;33.92;41.45;100481.63;5523093;32;34329;-86
2023/06/22 11:55:23;;;;;;;12.85;9.35;;;;;;;34.68;39.42;100478.53;5522519;32;35258;-86
2023/06/22 11:58:25;;;;;;;14.50;9.25;;;;;;;34.10;44.89;100474.47;5530612;32;34039;-86
2023/06/22 12:01:28;;;;;;;12.05;9.00;;;;;;;34.26;44.02;100476.56;5532367;32;32783;-85
2023/06/22 12:04:31;;;;;;;15.55;9.00;;;;;;;34.95;41.37;100469.84;5530464;32;33798;-86
2023/06/22 12:07:34;;;;;;;16.42;9.52;;;;;;;34.50;41.58;100470.31;5528931;32;33866;-85
2023/06/22 12:10:37;;;;;;;13.88;9.65;;;;;;;34.49;41.47;100465.88;5516221;32;34215;-86
2023/06/22 12:13:39;;;;;;;20.20;10.15;;;;;;;34.28;40.52;100470.81;5518214;32;33882;-85
2023/06/22 12:16:43;;;;;;;13.62;9.90;;;;;;;34.39;41.98;100460.94;5516537;32;33589;-86
2023/06/22 12:19:46;;;;;;;19.42;9.98;;;;;;;34.61;42.67;100468.69;5523070;32;33771;-85
2023/06/22 12:22:51;;;;;;;15.38;9.90;;;;;;;34.65;39.18;100456.97;5525588;32;34338;-86
2023/06/22 12:25:53;;;;;;;13.30;9.98;;;;;;;34.24;39.39;100451.19;5517230;32;34520;-86
2023/06/22 12:28:56;;;;;;;12.05;9.13;;;;;;;34.52;40.01;100446.13;5521334;32;34440;-86
2023/06/22 12:31:59;;;;;;;11.50;9.60;;;;;;;34.67;41.44;100440.22;5524543;32;34108;-86
2023/06/22 12:35:02;;;;;;;14.80;9.85;;;;;;;34.93;41.29;100435.34;5527170;32;33650;-85
2023/06/22 12:38:07;;;;;;;13.85;9.27;;;;;;;34.81;40.83;100435.34;5524118;32;34818;-87
2023/06/22 12:41:09;;;;;;;13.32;9.13;;;;;;;34.80;40.38;100433.66;5514908;32;34558;-86
2023/06/22 12:44:12;;;;;;;13.50;9.60;;;;;;;34.84;39.97;100440.34;5522997;32;34124;-86
2023/06/22 12:47:15;;;;;;;12.60;9.77;;;;;;;33.70;42.84;100434.50;5521663;32;33203;-87
2023/06/22 12:50:18;;;;;;;17.67;10.35;;;;;;;34.22;41.98;100434.06;5529925;32;33816;-86
2023/06/22 12:53:23;;;;;;;14.65;9.73;;;;;;;34.44;41.35;100433.53;5528824;32;33854;-86
2023/06/22 12:56:26;;;;;;;19.45;10.02;;;;;;;33.96;44.35;100427.81;5528490;32;33705;-86
2023/06/22 12:59:29;;;;;;;14.43;9.77;;;;;;;33.95;41.40;100422.53;5527973;32;34348;-86
2023/06/22 13:02:31;;;;;;;19.37;9.65;;;;;;;33.98;45.09;100422.09;5529091;32;33590;-86
2023/06/22 13:05:36;;;;;;;17.02;10.70;;;;;;;34.00;43.02;100429.03;5529500;32;34523;-86
2023/06/22 13:08:38;;;;;;;15.32;10.52;;;;;;;34.04;42.73;100421.19;5527148;32;34404;-90
2023/06/22 13:11:44;;;;;;;12.40;10.35;;;;;;;33.78;43.01;100420.41;5528940;32;34064;-90
2023/06/22 13:14:47;;;;;;;14.15;10.43;;;;;;;33.74;42.74;100409.03;5516369;32;33831;-88
2023/06/22 13:17:51;;;;;;;16.08;9.95;;;;;;;33.41;44.24;100406.63;5526764;32;34339;-84
2023/06/22 13:20:54;;;;;;;17.62;9.98;;;;;;;33.45;42.50;100405.12;5530002;32;33320;-85
2023/06/22 13:23:57;;;;;;;11.43;9.77;;;;;;;33.50;44.67;100399.81;5527970;32;33903;-86
2023/06/22 13:27:00;;;;;;;15.38;9.80;;;;;;;33.71;44.45;100394.91;5523621;32;33759;-86
2023/06/22 13:30:03;;;;;;;14.05;9.45;;;;;;;33.59;44.25;100392.09;5524793;32;34947;-85
2023/06/22 13:33:06;;;;;;;20.25;9.70;;;;;;;33.68;46.29;100389.87;5529911;32;33762;-84
2023/06/22 13:36:09;;;;;;;12.60;9.52;;;;;;;33.74;44.91;100388.97;5530603;32;35151;-85
2023/06/22 13:39:11;;;;;;;19.77;10.27;;;;;;;33.45;46.00;100391.38;5525898;32;35524;-86
2023/06/22 13:42:14;;;;;;;12.25;10.10;;;;;;;33.32;44.25;100389.59;5519974;32;33869;-86
2023/06/22 13:45:18;;;;;;;14.20;9.88;;;;;;;33.02;44.98;100391.19;5529019;32;34420;-85
2023/06/22 13:48:23;;;;;;;13.40;9.27;;;;;;;32.84;45.48;100385.59;5528913;32;35415;-85
2023/06/22 13:51:25;;;;;;;15.13;9.73;;;;;;;33.04;45.24;100388.22;5536961;32;34131;-85
2023/06/22 13:54:28;;;;;;;10.32;9.23;;;;;;;33.14;45.51;100376.69;5548855;32;33936;-85
2023/06/22 13:57:34;;;;;;;14.68;9.27;;;;;;;33.25;45.76;100383.34;5548326;32;33762;-85
2023/06/22 14:00:37;;;;;;;14.60;9.32;;;;;;;33.48;43.49;100388.16;5548833;32;33795;-84
2023/06/22 14:03:40;;;;;;;14.23;9.75;;;;;;;33.48;43.67;100375.25;5549087;32;33573;-85
2023/06/22 14:06:43;;;;;;;15.07;9.48;;;;;;;32.97;44.91;100380.03;5549378;32;34070;-85
2023/06/22 14:09:46;;;;;;;12.25;9.57;;;;;;;32.66;45.53;100379.00;5547768;32;34654;-86
2023/06/22 14:12:49;;;;;;;13.45;9.95;;;;;;;32.72;45.41;100369.84;5548105;32;34215;-86
2023/06/22 14:15:53;;;;;;;15.73;10.48;;;;;;;32.65;45.93;100363.59;5548396;32;34236;-85
2023/06/22 14:18:56;;;;;;;13.60;9.70;;;;;;;32.85;45.41;100366.16;5548404;32;33490;-85
2023/06/22 14:22:00;;;;;;;15.98;9.90;;;;;;;33.04;45.54;100360.75;5548417;32;34004;-85
2023/06/22 14:25:02;;;;;;;13.52;9.32;;;;;;;33.12;45.24;100359.59;5548173;32;34124;-85
2023/06/22 14:28:06;;;;;;;12.02;9.07;;;;;;;33.18;45.72;100351.28;5548340;32;33548;-85
2023/06/22 14:31:08;;;;;;;13.07;8.85;;;;;;;33.33;45.29;100353.66;5538924;32;33545;-85
2023/06/22 14:34:11;;;;;;;14.80;9.40;;;;;;;33.33;44.68;100352.84;5529629;32;33571;-85
2023/06/22 14:37:14;;;;;;;17.02;9.70;;;;;;;33.06;44.67;100342.09;5529735;32;33752;-85
2023/06/22 14:40:17;;;;;;;12.43;9.88;;;;;;;33.05;45.76;100344.03;5530096;32;34545;-85
2023/06/22 14:43:20;;;;;;;14.07;9.60;;;;;;;32.88;46.12;100337.41;5534222;32;35052;-84
2023/06/22 14:46:23;;;;;;;14.65;10.23;;;;;;;32.98;45.63;100332.25;5530009;32;33700;-84
2023/06/22 14:49:26;;;;;;;12.82;9.48;;;;;;;33.20;46.44;100340.06;5518806;32;34534;-84
2023/06/22 14:52:28;;;;;;;15.90;9.85;;;;;;;33.07;48.25;100330.91;5524247;32;33996;-84
2023/06/22 14:55:31;;;;;;;12.82;9.48;;;;;;;33.19;45.98;100328.22;5521326;32;35166;-84
2023/06/22 14:58:35;;;;;;;14.60;9.38;;;;;;;32.97;44.10;100336.06;5511200;32;34474;-85
2023/06/22 15:01:38;;;;;;;12.15;9.18;;;;;;;32.76;45.50;100327.16;5509888;32;33586;-85
2023/06/22 15:04:43;;;;;;;13.27;9.70;;;;;;;32.65;45.00;100327.91;5509672;32;33697;-85
2023/06/22 15:07:46;;;;;;;12.98;9.82;;;;;;;32.54;45.97;100321.25;5509654;32;33713;-85
2023/06/22 15:10:49;;;;;;;12.68;9.23;;;;;;;32.49;46.09;100318.31;5509573;32;33514;-85
2023/06/22 15:13:52;;;;;;;15.75;9.85;;;;;;;32.46;46.30;100314.13;5509853;32;33598;-85
2023/06/22 15:16:55;;;;;;;17.27;9.30;;;;;;;32.38;46.55;100306.13;5510362;32;33543;-85
2023/06/22 15:19:58;;;;;;;13.52;9.45;;;;;;;32.48;46.68;100308.41;5508913;32;33614;-84
2023/06/22 15:23:01;;;;;;;11.43;9.63;;;;;;;32.33;46.33;100305.97;5509147;32;33428;-85
